Time,TemperatureF,DewpointF,PressureIn,WindDirection,WindDirectionDegrees,WindSpeedMPH,WindSpeedGustMPH,Humidity,HourlyPrecipIn,Conditions,Clouds,dailyrainin,SolarRadiationWatts/m^2,SoftwareType,DateUTC
2013-08-04 00:03:00,52.0,51.0,-100.00,SE,133,0.0,0.0,97,0.00,,,0.02,0.000000,,2013-08-04 04:03:00,
2013-08-04 00:32:00,51.0,50.0,-100.00,SE,130,0.0,0.0,98,0.00,,,0.02,0.000000,,2013-08-04 04:32:00,
2013-08-04 00:42:00,51.0,50.0,-100.00,SE,130,0.0,0.0,98,0.00,,,0.02,0.000000,,2013-08-04 04:42:00,
2013-08-04 00:52:00,51.0,50.0,-100.00,SE,130,0.0,0.0,98,0.00,,,0.02,0.000000,,2013-08-04 04:52:00,
2013-08-04 01:02:00,51.0,50.0,-100.00,SE,130,0.0,0.0,98,0.00,,,0.02,0.000000,,2013-08-04 05:02:00,
2013-08-04 01:32:00,50.0,49.0,-100.00,ESE,106,0.0,0.0,98,0.00,,,0.01,0.000000,,2013-08-04 05:32:00,
2013-08-04 01:42:00,50.0,49.0,-100.00,ESE,106,0.0,0.0,98,0.00,,,0.01,0.000000,,2013-08-04 05:42:00,
2013-08-04 01:52:00,50.0,49.0,-100.00,ESE,106,0.0,0.0,98,0.00,,,0.01,0.000000,,2013-08-04 05:52:00,
2013-08-04 02:02:00,50.0,49.0,-100.00,ESE,106,0.0,0.0,98,0.00,,,0.01,0.000000,,2013-08-04 06:02:00,
2013-08-04 02:32:00,50.0,49.0,-100.00,SE,145,0.0,0.0,98,0.00,,,0.01,0.000000,,2013-08-04 06:32:00,
2013-08-04 02:43:00,50.0,49.0,-100.00,SE,145,0.0,0.0,98,0.00,,,0.01,0.000000,,2013-08-04 06:43:00,
2013-08-04 02:52:00,50.0,49.0,-100.00,SE,145,0.0,0.0,98,0.00,,,0.01,0.000000,,2013-08-04 06:52:00,
2013-08-04 03:02:00,50.0,49.0,-100.00,SE,145,0.0,0.0,98,0.00,,,0.01,0.000000,,2013-08-04 07:02:00,
2013-08-04 03:33:00,51.0,50.0,-100.00,SSW,199,0.0,0.0,98,0.00,,,0.01,0.000000,,2013-08-04 07:33:00,
2013-08-04 03:43:00,51.0,50.0,-100.00,SSW,199,0.0,0.0,98,0.00,,,0.01,0.000000,,2013-08-04 07:43:00,
2013-08-04 03:53:00,51.0,50.0,-100.00,SSW,199,0.0,0.0,98,0.00,,,0.01,0.000000,,2013-08-04 07:53:00,
2013-08-04 04:02:00,51.0,50.0,-100.00,SSW,199,0.0,0.0,98,0.00,,,0.01,0.000000,,2013-08-04 08:02:00,
2013-08-04 04:32:00,53.0,53.0,-100.00,WNW,282,0.0,2.0,99,0.00,,,0.01,0.000000,,2013-08-04 08:32:00,
2013-08-04 04:43:00,53.0,53.0,-100.00,WNW,282,0.0,2.0,99,0.00,,,0.01,0.000000,,2013-08-04 08:43:00,
2013-08-04 04:53:00,53.0,53.0,-100.00,WNW,282,0.0,2.0,99,0.00,,,0.01,0.000000,,2013-08-04 08:53:00,
2013-08-04 05:02:00,53.0,53.0,-100.00,WNW,282,0.0,2.0,99,0.00,,,0.01,0.000000,,2013-08-04 09:02:00,
2013-08-04 05:32:00,52.0,52.0,-100.00,West,281,0.0,0.0,99,0.00,,,0.01,0.000000,,2013-08-04 09:32:00,
2013-08-04 05:43:00,52.0,52.0,-100.00,West,281,0.0,0.0,99,0.00,,,0.01,0.000000,,2013-08-04 09:43:00,
2013-08-04 05:52:00,52.0,52.0,-100.00,West,281,0.0,0.0,99,0.00,,,0.01,0.000000,,2013-08-04 09:52:00,
2013-08-04 06:02:00,52.0,52.0,-100.00,West,281,0.0,0.0,99,0.00,,,0.01,0.000000,,2013-08-04 10:02:00,
2013-08-04 07:32:00,53.0,52.0,-100.00,WNW,294,0.0,0.0,98,-99.99,,,0.01,28.000000,,2013-08-04 11:32:00,
2013-08-04 07:42:00,53.0,52.0,-100.00,WNW,294,0.0,0.0,98,-99.99,,,0.01,28.000000,,2013-08-04 11:42:00,
2013-08-04 07:53:00,53.0,52.0,-100.00,WNW,294,0.0,0.0,98,-99.99,,,0.01,28.000000,,2013-08-04 11:53:00,
2013-08-04 08:02:00,53.0,52.0,-100.00,WNW,294,0.0,0.0,98,-99.99,,,0.01,28.000000,,2013-08-04 12:02:00,
2013-08-04 08:32:00,57.0,56.0,-100.00,NW,304,4.0,7.0,95,0.00,,,0.01,221.000000,,2013-08-04 12:32:00,
2013-08-04 08:43:00,57.0,56.0,-100.00,NW,304,4.0,7.0,95,0.00,,,0.01,221.000000,,2013-08-04 12:43:00,
2013-08-04 08:53:00,57.0,56.0,-100.00,NW,304,4.0,7.0,95,0.00,,,0.01,221.000000,,2013-08-04 12:53:00,
2013-08-04 09:02:00,57.0,56.0,-100.00,NW,304,4.0,7.0,95,0.00,,,0.01,221.000000,,2013-08-04 13:02:00,
2013-08-04 09:32:00,60.0,53.0,-100.00,WNW,302,5.0,14.0,79,0.00,,,0.01,405.000000,,2013-08-04 13:32:00,
2013-08-04 09:43:00,60.0,53.0,-100.00,WNW,302,5.0,14.0,79,0.00,,,0.01,405.000000,,2013-08-04 13:43:00,
2013-08-04 09:52:00,60.0,53.0,-100.00,WNW,302,5.0,14.0,79,0.00,,,0.01,405.000000,,2013-08-04 13:52:00,
2013-08-04 10:02:00,60.0,53.0,-100.00,WNW,302,5.0,14.0,79,0.00,,,0.01,405.000000,,2013-08-04 14:02:00,
2013-08-04 10:33:00,61.0,52.0,-100.00,WNW,301,5.0,10.0,73,0.00,,,0.01,392.000000,,2013-08-04 14:33:00,
2013-08-04 10:43:00,61.0,52.0,-100.00,WNW,301,5.0,10.0,73,0.00,,,0.01,392.000000,,2013-08-04 14:43:00,
2013-08-04 10:53:00,61.0,52.0,-100.00,WNW,301,5.0,10.0,73,0.00,,,0.01,392.000000,,2013-08-04 14:53:00,
2013-08-04 11:02:00,61.0,52.0,-100.00,WNW,301,5.0,10.0,73,0.00,,,0.01,392.000000,,2013-08-04 15:02:00,
2013-08-04 11:32:00,64.0,52.0,-100.00,NW,305,6.0,12.0,64,0.00,,,0.01,521.000000,,2013-08-04 15:32:00,
2013-08-04 11:43:00,64.0,52.0,-100.00,NW,305,6.0,12.0,64,0.00,,,0.01,521.000000,,2013-08-04 15:43:00,
2013-08-04 11:53:00,64.0,52.0,-100.00,NW,305,6.0,12.0,64,0.00,,,0.01,521.000000,,2013-08-04 15:53:00,
2013-08-04 12:02:00,64.0,52.0,-100.00,NW,305,6.0,12.0,64,0.00,,,0.01,521.000000,,2013-08-04 16:02:00,
2013-08-04 12:33:00,66.0,51.0,-100.00,NW,305,5.0,7.0,59,0.00,,,0.01,695.000000,,2013-08-04 16:33:00,
2013-08-04 12:43:00,66.0,51.0,-100.00,NW,305,5.0,7.0,59,0.00,,,0.01,695.000000,,2013-08-04 16:43:00,
2013-08-04 12:53:00,66.0,51.0,-100.00,NW,305,5.0,7.0,59,0.00,,,0.01,695.000000,,2013-08-04 16:53:00,
2013-08-04 13:02:00,66.0,51.0,-100.00,NW,305,5.0,7.0,59,0.00,,,0.01,695.000000,,2013-08-04 17:02:00,
2013-08-04 13:32:00,70.0,52.0,-100.00,NW,319,5.0,12.0,52,0.00,,,0.00,908.000000,,2013-08-04 17:32:00,
2013-08-04 13:43:00,70.0,52.0,-100.00,NW,319,5.0,12.0,52,0.00,,,0.00,908.000000,,2013-08-04 17:43:00,
2013-08-04 13:53:00,70.0,52.0,-100.00,NW,319,5.0,12.0,52,0.00,,,0.00,908.000000,,2013-08-04 17:53:00,
2013-08-04 14:02:00,70.0,52.0,-100.00,NW,319,5.0,12.0,52,0.00,,,0.00,908.000000,,2013-08-04 18:02:00,
2013-08-04 14:33:00,71.0,52.0,-100.00,NW,312,5.0,10.0,51,0.00,,,0.00,805.000000,,2013-08-04 18:33:00,
2013-08-04 14:43:00,71.0,52.0,-100.00,NW,312,5.0,10.0,51,0.00,,,0.00,805.000000,,2013-08-04 18:43:00,
2013-08-04 14:52:00,71.0,52.0,-100.00,NW,312,5.0,10.0,51,0.00,,,0.00,805.000000,,2013-08-04 18:52:00,
2013-08-04 15:02:00,71.0,52.0,-100.00,NW,312,5.0,10.0,51,0.00,,,0.00,805.000000,,2013-08-04 19:02:00,
2013-08-04 15:33:00,73.0,52.0,-100.00,NW,315,5.0,8.0,47,0.00,,,0.00,770.000000,,2013-08-04 19:33:00,
2013-08-04 15:44:00,73.0,52.0,-100.00,NW,315,5.0,8.0,47,0.00,,,0.00,770.000000,,2013-08-04 19:44:00,
2013-08-04 15:53:00,73.0,52.0,-100.00,NW,315,5.0,8.0,47,0.00,,,0.00,770.000000,,2013-08-04 19:53:00,
2013-08-04 16:02:00,73.0,52.0,-100.00,NW,315,5.0,8.0,47,0.00,,,0.00,770.000000,,2013-08-04 20:02:00,
2013-08-04 16:33:00,74.0,51.0,-100.00,NW,304,6.0,8.0,44,0.00,,,0.00,976.000000,,2013-08-04 20:33:00,
2013-08-04 16:43:00,74.0,51.0,-100.00,NW,304,6.0,8.0,44,0.00,,,0.00,976.000000,,2013-08-04 20:43:00,
2013-08-04 16:53:00,74.0,51.0,-100.00,NW,304,6.0,8.0,44,0.00,,,0.00,976.000000,,2013-08-04 20:53:00,
2013-08-04 17:02:00,74.0,51.0,-100.00,NW,304,6.0,8.0,44,0.00,,,0.00,976.000000,,2013-08-04 21:02:00,
2013-08-04 17:32:00,72.0,51.0,-100.00,WNW,301,6.0,8.0,47,0.00,,,0.00,821.000000,,2013-08-04 21:32:00,
2013-08-04 17:43:00,72.0,51.0,-100.00,WNW,301,6.0,8.0,47,0.00,,,0.00,821.000000,,2013-08-04 21:43:00,
2013-08-04 17:53:00,72.0,51.0,-100.00,WNW,301,6.0,8.0,47,0.00,,,0.00,821.000000,,2013-08-04 21:53:00,
2013-08-04 18:02:00,72.0,51.0,-100.00,WNW,301,6.0,8.0,47,0.00,,,0.00,821.000000,,2013-08-04 22:02:00,
2013-08-04 18:32:00,68.0,48.0,-100.00,WNW,299,5.0,10.0,49,0.00,,,0.00,598.000000,,2013-08-04 22:32:00,
2013-08-04 18:43:00,68.0,48.0,-100.00,WNW,299,5.0,10.0,49,0.00,,,0.00,598.000000,,2013-08-04 22:43:00,
2013-08-04 18:53:00,68.0,48.0,-100.00,WNW,299,5.0,10.0,49,0.00,,,0.00,598.000000,,2013-08-04 22:53:00,
2013-08-04 19:02:00,68.0,48.0,-100.00,WNW,299,5.0,10.0,49,0.00,,,0.00,598.000000,,2013-08-04 23:02:00,
2013-08-04 19:32:00,68.0,53.0,-100.00,NW,319,4.0,8.0,58,0.00,,,0.00,336.000000,,2013-08-04 23:32:00,
2013-08-04 19:43:00,68.0,53.0,-100.00,NW,319,4.0,8.0,58,0.00,,,0.00,336.000000,,2013-08-04 23:43:00,
2013-08-04 19:53:00,68.0,53.0,-100.00,NW,319,4.0,8.0,58,0.00,,,0.00,336.000000,,2013-08-04 23:53:00,
2013-08-04 20:02:00,68.0,53.0,-100.00,NW,319,4.0,8.0,58,0.00,,,0.00,336.000000,,2013-08-05 00:02:00,
2013-08-04 20:33:00,61.0,52.0,-100.00,NW,311,2.0,5.0,73,0.00,,,0.00,125.000000,,2013-08-05 00:33:00,
2013-08-04 20:42:00,61.0,52.0,-100.00,NW,311,2.0,5.0,73,0.00,,,0.00,125.000000,,2013-08-05 00:42:00,
2013-08-04 20:53:00,61.0,52.0,-100.00,NW,311,2.0,5.0,73,0.00,,,0.00,125.000000,,2013-08-05 00:53:00,
2013-08-04 21:02:00,61.0,52.0,-100.00,NW,311,2.0,5.0,73,0.00,,,0.00,125.000000,,2013-08-05 01:02:00,
2013-08-04 21:33:00,56.0,52.0,-100.00,SW,233,0.0,1.0,87,0.00,,,0.00,3.000000,,2013-08-05 01:33:00,
2013-08-04 21:43:00,56.0,52.0,-100.00,SW,233,0.0,1.0,87,0.00,,,0.00,3.000000,,2013-08-05 01:43:00,
2013-08-04 21:52:00,56.0,52.0,-100.00,SW,233,0.0,1.0,87,0.00,,,0.00,3.000000,,2013-08-05 01:52:00,
2013-08-04 22:02:00,56.0,52.0,-100.00,SW,233,0.0,1.0,87,0.00,,,0.00,3.000000,,2013-08-05 02:02:00,
2013-08-04 22:33:00,54.0,53.0,-100.00,SSW,205,0.0,0.0,95,0.00,,,0.00,0.000000,,2013-08-05 02:33:00,
2013-08-04 22:43:00,54.0,53.0,-100.00,SSW,205,0.0,0.0,95,0.00,,,0.00,0.000000,,2013-08-05 02:43:00,
2013-08-04 22:53:00,54.0,53.0,-100.00,SSW,205,0.0,0.0,95,0.00,,,0.00,0.000000,,2013-08-05 02:53:00,
2013-08-04 23:02:00,54.0,53.0,-100.00,SSW,205,0.0,0.0,95,0.00,,,0.00,0.000000,,2013-08-05 03:02:00,
2013-08-04 23:32:00,53.0,52.0,-100.00,WNW,282,0.0,0.0,97,0.00,,,0.00,0.000000,,2013-08-05 03:32:00,
2013-08-04 23:42:00,53.0,52.0,-100.00,WNW,282,0.0,0.0,97,0.00,,,0.00,0.000000,,2013-08-05 03:42:00,
2013-08-04 23:53:00,53.0,52.0,-100.00,WNW,282,0.0,0.0,97,0.00,,,0.00,0.000000,,2013-08-05 03:53:00,